Newman Lake, WA (99025)

11:35 PM PDT on September 30, 2016 (GMT -0700)
Moab | | Change Station

Elev 2140 ft 47.73 °N, 117.06 °W | Updated 4 minutes ago

Clear
Clear
58.3 °F
Feels Like 58.3 °F
N
0.0
Wind Variable Wind from West
Gusts 0.0 mph

Today
High -- | Low -- °F
--% Chance of Precip.
Yesterday
High -- | Low -- °F
Precip. -- in
Pressure 29.82 in
Visibility 10.0 miles
Clouds Clear
Dew Point 53 °F
Humidity 82%
Rainfall 0.02 in
Snow Depth Not available.
6:46 AM 6:28 PM
New Moon, 0% visible
METAR KSFF 010553Z AUTO 00000KT 10SM CLR 16/10 A2984 RMK AO2 SLP096 60000 T01560100 10256 20156 53005
Pressure 29.82 in
Visibility 10.0 miles
Clouds Clear
Dew Point 53 °F
Humidity 82%
Rainfall 0.02 in
Snow Depth Not available.
6:46 AM 6:28 PM
New Moon, 0% visible
METAR KSFF 010553Z AUTO 00000KT 10SM CLR 16/10 A2984 RMK AO2 SLP096 60000 T01560100 10256 20156 53005

10-Day Weather Forecast

Almanac

Astronomy

Sep. 30, 2016 Rise Set
Actual Time
Civil Twilight
Nautical Twilight
Astronomical Twilight
Moon
Length of Visible Light
Length of Day
Tomorrow will be .
, % of the Moon is Illuminated

Today's Extremes

State Highs State Lows

Community

WunderPhotos

Upload Photos

1,942,898 photos uploaded!

WunderBlog® & News

Nearby

Air Quality

  Air Quality AQ Index Pollutant
Not available.

Snow Depth

Station Depth Elevation

Earthquake Activity

City Distance Mag. Time & Date
Minimum magnitude displayed is 2.5.

Coastal Water Temperatures

Place Temperature

Stations

Nearby Weather Stations

Station Location Temp. Windchill Dew Point Humidity Wind Precip. Elev Updated Type
                   

Watches & Warnings

There are currently no watches in effect.